Time;durP1;ratioP1;P1;durP2;ratioP2;P2;SDS_P1;SDS_P2;PMS_P1;PMS_P2;Temp;Humidity;BMP_temperature;BMP_pressure;BME280_temperature;BME280_humidity;BME280_pressure;Samples;Min_cycle;Max_cycle;Signal;HPM_P1;HPM_P2
2023/12/09 00:00:30;;;;;;;13.10;9.63;;;;;;;16.85;41.50;93061.22;4941104;28;20483;-92
2023/12/09 00:02:56;;;;;;;10.18;7.43;;;;;;;16.84;41.53;93064.44;4942264;28;21209;-93
2023/12/09 00:05:21;;;;;;;8.13;6.53;;;;;;;16.75;41.84;93049.88;4939225;28;20029;-92
2023/12/09 00:07:46;;;;;;;7.80;6.32;;;;;;;16.76;41.10;93056.81;4964096;28;20040;-92
2023/12/09 00:10:12;;;;;;;8.50;7.28;;;;;;;16.81;41.61;93066.22;4987891;28;20335;-92
2023/12/09 00:12:37;;;;;;;13.70;9.27;;;;;;;16.82;41.24;93058.75;5000128;28;20032;-92
2023/12/09 00:15:04;;;;;;;8.88;6.60;;;;;;;16.77;41.63;93063.75;4995146;28;20139;-95
2023/12/09 00:17:29;;;;;;;8.13;7.18;;;;;;;16.83;41.43;93062.97;5000152;28;20054;-92
2023/12/09 00:19:55;;;;;;;8.40;6.65;;;;;;;16.82;41.39;93064.22;4988713;28;20029;-93
2023/12/09 00:22:20;;;;;;;7.88;6.53;;;;;;;16.78;41.60;93056.31;5005647;28;20037;-93
2023/12/09 00:24:46;;;;;;;8.52;6.97;;;;;;;16.72;41.63;93061.78;5044282;28;20024;-93
2023/12/09 00:27:11;;;;;;;8.50;6.43;;;;;;;16.76;41.42;93058.78;5035059;28;20591;-93
2023/12/09 00:29:37;;;;;;;9.85;6.63;;;;;;;16.76;41.35;93050.59;5030756;28;20039;-92
2023/12/09 00:32:02;;;;;;;10.13;7.03;;;;;;;16.84;41.73;93050.81;5043561;28;20071;-93
2023/12/09 00:34:28;;;;;;;11.43;8.02;;;;;;;16.82;41.54;93056.03;5019189;28;20122;-93
2023/12/09 00:36:53;;;;;;;7.28;6.03;;;;;;;16.81;41.63;93052.56;5033217;28;20019;-93
2023/12/09 00:39:20;;;;;;;13.13;10.60;;;;;;;16.83;41.86;93052.78;5014827;28;21143;-93
2023/12/09 00:41:45;;;;;;;7.80;6.10;;;;;;;16.77;41.36;93052.81;5004556;28;20020;-93
2023/12/09 00:44:12;;;;;;;10.20;8.32;;;;;;;16.86;41.42;93051.78;4995034;28;20540;-91
2023/12/09 00:46:37;;;;;;;9.18;6.85;;;;;;;16.80;41.50;93051.06;4996676;28;20036;-93
2023/12/09 00:49:02;;;;;;;7.55;6.22;;;;;;;16.82;41.34;93058.75;4988054;28;20039;-93
2023/12/09 00:51:28;;;;;;;7.60;6.65;;;;;;;16.76;41.37;93053.34;4952406;28;20107;-93
2023/12/09 00:53:53;;;;;;;8.43;6.75;;;;;;;16.75;41.64;93058.06;4926961;28;20085;-91
2023/12/09 00:56:19;;;;;;;8.18;6.10;;;;;;;16.74;41.36;93047.63;4955818;28;20135;-92
2023/12/09 00:58:44;;;;;;;8.65;6.85;;;;;;;16.72;41.67;93055.59;4938580;28;20131;-93
2023/12/09 01:01:13;;;;;;;8.80;6.38;;;;;;;16.68;41.63;93064.06;4956931;28;20100;-92
2023/12/09 01:03:38;;;;;;;11.63;7.03;;;;;;;16.74;41.17;93059.31;4956187;28;20554;-90
2023/12/09 01:06:05;;;;;;;8.23;6.70;;;;;;;16.71;41.37;93062.31;4965240;28;20053;-92
2023/12/09 01:08:31;;;;;;;8.95;7.30;;;;;;;16.76;41.53;93064.25;4953794;28;20041;-92
2023/12/09 01:10:56;;;;;;;11.13;8.95;;;;;;;16.76;41.68;93065.00;4935377;28;20484;-92
2023/12/09 01:13:22;;;;;;;8.43;6.65;;;;;;;16.78;41.39;93067.97;4940408;28;20053;-93
2023/12/09 01:15:47;;;;;;;10.77;7.20;;;;;;;16.73;41.44;93068.72;4939751;28;20037;-92
2023/12/09 01:18:13;;;;;;;9.23;6.90;;;;;;;16.74;41.36;93064.03;4935547;28;20069;-92
2023/12/09 01:20:38;;;;;;;8.95;6.15;;;;;;;16.75;41.37;93065.50;4929322;28;20943;-93
2023/12/09 01:23:04;;;;;;;9.63;6.53;;;;;;;16.71;41.72;93067.75;4974999;28;20067;-92
2023/12/09 01:25:29;;;;;;;8.75;6.30;;;;;;;16.79;41.59;93066.72;5010481;28;20028;-93
2023/12/09 01:27:55;;;;;;;7.22;5.85;;;;;;;16.70;41.78;93067.00;5029069;28;20054;-92
2023/12/09 01:30:20;;;;;;;7.57;5.90;;;;;;;16.68;41.50;93058.59;5029858;28;20027;-91
2023/12/09 01:32:45;;;;;;;7.50;6.50;;;;;;;16.72;41.52;93063.78;5032923;28;20109;-94
2023/12/09 01:35:11;;;;;;;7.63;6.47;;;;;;;16.72;41.37;93066.50;5031338;28;20511;-93
2023/12/09 01:37:36;;;;;;;8.73;6.30;;;;;;;16.74;41.48;93062.03;5028528;28;20032;-91
2023/12/09 01:40:02;;;;;;;8.80;6.95;;;;;;;16.68;41.70;93071.50;4989835;28;21706;-93
2023/12/09 01:42:27;;;;;;;9.02;7.05;;;;;;;16.72;41.84;93069.25;4983223;28;20040;-93
2023/12/09 01:44:53;;;;;;;10.20;7.10;;;;;;;16.78;41.52;93081.59;4979263;28;20827;-92
2023/12/09 01:47:18;;;;;;;9.77;7.90;;;;;;;16.81;41.47;93082.59;4989906;28;20537;-92
2023/12/09 01:49:44;;;;;;;11.52;9.00;;;;;;;16.74;41.45;93072.22;4984889;28;20714;-93
2023/12/09 01:52:09;;;;;;;8.18;7.00;;;;;;;16.82;41.59;93072.41;4983979;28;20051;-92
2023/12/09 01:54:34;;;;;;;11.60;9.60;;;;;;;16.85;41.69;93071.41;4989469;28;20040;-92
2023/12/09 01:57:00;;;;;;;8.88;6.97;;;;;;;16.76;41.74;93083.34;5003409;28;20040;-92
2023/12/09 01:59:25;;;;;;;14.95;11.90;;;;;;;16.90;41.37;93078.78;5018958;28;20040;-93
2023/12/09 02:01:51;;;;;;;13.30;9.13;;;;;;;16.87;41.51;93079.81;5031995;28;20040;-91
2023/12/09 02:04:17;;;;;;;9.20;7.15;;;;;;;16.86;41.63;93081.06;5039438;28;20036;-94
2023/12/09 02:06:42;;;;;;;8.93;6.35;;;;;;;16.77;41.54;93085.59;5031542;28;20077;-93
2023/12/09 02:09:09;;;;;;;10.27;7.78;;;;;;;16.85;41.75;93083.06;4974543;28;20808;-92
2023/12/09 02:11:38;;;;;;;11.40;7.45;;;;;;;16.83;41.99;93082.81;4978360;28;20044;-92
2023/12/09 02:14:10;;;;;;;8.50;6.40;;;;;;;16.83;41.19;93074.63;5006959;28;20074;-92
2023/12/09 02:16:59;;;;;;;7.75;5.95;;;;;;;16.76;41.50;93077.91;5013963;28;20070;-92
2023/12/09 02:19:24;;;;;;;7.47;6.50;;;;;;;16.75;41.28;93076.41;5014674;28;20053;-93
2023/12/09 02:21:57;;;;;;;12.68;9.85;;;;;;;16.79;41.87;93088.56;5004761;28;20029;-92
2023/12/09 02:24:26;;;;;;;11.48;8.45;;;;;;;16.80;41.74;93081.09;5035345;28;20032;-94
2023/12/09 02:26:51;;;;;;;7.18;5.63;;;;;;;16.72;41.71;93080.16;5019112;28;20124;-93
2023/12/09 02:29:17;;;;;;;14.23;9.48;;;;;;;16.81;41.45;93077.13;5006200;28;20070;-92
2023/12/09 02:31:42;;;;;;;14.55;10.77;;;;;;;16.84;41.99;93081.56;4991878;28;20044;-92
2023/12/09 02:34:08;;;;;;;10.02;7.10;;;;;;;16.75;41.24;93084.59;4990589;28;20583;-92
2023/12/09 02:36:33;;;;;;;10.48;7.72;;;;;;;16.72;41.70;93082.88;5005401;28;20567;-92
2023/12/09 02:38:58;;;;;;;8.18;6.75;;;;;;;16.67;42.25;93076.22;4995061;28;20043;-92
2023/12/09 02:41:24;;;;;;;9.05;7.53;;;;;;;16.71;41.80;93081.41;4982853;28;20029;-92
2023/12/09 02:43:49;;;;;;;15.50;12.10;;;;;;;16.80;41.84;93083.84;4973568;28;20477;-93
2023/12/09 02:46:15;;;;;;;8.80;6.22;;;;;;;16.72;41.56;93080.91;4994024;28;20032;-92
2023/12/09 02:48:40;;;;;;;7.57;5.85;;;;;;;16.75;41.69;93082.63;4996216;28;20044;-92
2023/12/09 02:51:06;;;;;;;10.73;7.85;;;;;;;16.70;41.64;93075.22;4990432;28;21067;-92
2023/12/09 02:53:32;;;;;;;11.35;7.45;;;;;;;16.72;41.83;93082.88;5001748;28;20066;-92
2023/12/09 02:55:57;;;;;;;13.10;10.57;;;;;;;16.84;41.75;93081.56;5000747;28;20511;-92
2023/12/09 02:58:23;;;;;;;11.65;9.57;;;;;;;16.82;41.26;93081.34;4961675;28;20033;-95
2023/12/09 03:00:48;;;;;;;10.07;8.13;;;;;;;16.77;41.70;93080.13;4991903;28;20041;-91
2023/12/09 03:03:14;;;;;;;12.40;9.30;;;;;;;16.84;41.76;93081.56;4994077;28;20105;-94
2023/12/09 03:05:41;;;;;;;9.88;7.35;;;;;;;16.84;41.43;93084.31;4991152;28;20045;-92
2023/12/09 03:08:07;;;;;;;12.27;9.27;;;;;;;16.85;41.73;93093.97;4984123;28;20041;-93
2023/12/09 03:10:33;;;;;;;7.18;6.10;;;;;;;16.79;41.72;93096.00;4939573;28;20068;-92
2023/12/09 03:12:59;;;;;;;9.68;6.78;;;;;;;16.82;41.90;93099.69;4955952;28;20052;-93
2023/12/09 03:15:25;;;;;;;10.73;8.07;;;;;;;16.83;42.05;93085.56;4952294;28;20037;-92
2023/12/09 03:17:51;;;;;;;13.80;8.90;;;;;;;16.81;41.61;93090.03;4938563;28;21145;-94
2023/12/09 03:20:18;;;;;;;9.60;6.50;;;;;;;16.71;41.83;93082.16;4939400;28;20092;-92
2023/12/09 03:22:43;;;;;;;8.45;6.20;;;;;;;16.81;41.42;93092.75;4948853;28;20050;-94
2023/12/09 03:25:08;;;;;;;8.80;7.32;;;;;;;16.85;41.72;93085.03;4917361;28;20045;-90
2023/12/09 03:27:34;;;;;;;8.98;6.90;;;;;;;16.88;41.93;93086.75;4911000;28;20239;-91
2023/12/09 03:30:00;;;;;;;10.85;8.50;;;;;;;16.88;41.74;93084.78;4986442;28;20044;-92
2023/12/09 03:32:25;;;;;;;11.93;8.48;;;;;;;16.89;41.86;93083.50;4977822;28;20040;-93
2023/12/09 03:34:52;;;;;;;9.93;6.93;;;;;;;16.80;41.72;93086.56;4976422;28;20056;-93
2023/12/09 03:37:17;;;;;;;10.05;7.15;;;;;;;16.82;41.36;93089.53;4976387;28;20045;-92
2023/12/09 03:39:43;;;;;;;7.95;6.38;;;;;;;16.82;41.41;93094.25;4947268;28;20180;-93
2023/12/09 03:42:08;;;;;;;14.18;10.05;;;;;;;16.87;42.20;93085.28;4955453;28;20169;-92
2023/12/09 03:44:34;;;;;;;10.68;8.50;;;;;;;16.81;41.96;93096.22;4940795;28;20029;-91
2023/12/09 03:46:59;;;;;;;12.15;9.00;;;;;;;16.89;41.97;93099.88;4939141;28;20043;-93
2023/12/09 03:49:25;;;;;;;9.70;7.10;;;;;;;16.79;41.71;93107.66;4954771;28;20045;-93
2023/12/09 03:51:51;;;;;;;11.38;10.15;;;;;;;16.86;42.08;93100.19;4914972;28;20043;-92
2023/12/09 03:54:17;;;;;;;12.68;10.20;;;;;;;16.87;41.96;93094.22;4928107;28;20676;-91
2023/12/09 03:56:42;;;;;;;12.73;9.55;;;;;;;16.85;42.10;93099.44;4944887;28;20135;-93
2023/12/09 03:59:08;;;;;;;9.65;8.18;;;;;;;16.84;42.22;93092.50;4920222;28;20056;-92
2023/12/09 04:01:33;;;;;;;8.02;6.47;;;;;;;16.76;41.99;93091.56;4951542;28;20471;-91
2023/12/09 04:04:00;;;;;;;11.57;8.70;;;;;;;16.86;41.77;93092.72;4938894;28;20038;-92
2023/12/09 04:06:25;;;;;;;13.07;11.02;;;;;;;16.85;41.79;93102.16;4933506;28;20049;-92
2023/12/09 04:08:52;;;;;;;7.93;6.82;;;;;;;16.82;41.77;93094.25;4938147;28;20050;-93
2023/12/09 04:11:18;;;;;;;12.27;8.98;;;;;;;16.86;41.67;93086.53;4927847;28;20057;-92
2023/12/09 04:13:46;;;;;;;12.43;8.43;;;;;;;16.81;41.87;93087.31;4912821;28;20098;-91
2023/12/09 04:16:13;;;;;;;16.00;10.85;;;;;;;16.79;41.76;93098.72;4913347;28;20046;-93
2023/12/09 04:18:39;;;;;;;13.77;9.88;;;;;;;16.82;42.11;93094.25;4899914;28;20042;-94
2023/12/09 04:21:05;;;;;;;7.43;6.53;;;;;;;16.76;41.84;93105.19;4915074;28;20129;-92
2023/12/09 04:23:31;;;;;;;7.68;6.47;;;;;;;16.71;41.93;93105.97;4941743;28;20076;-93
2023/12/09 04:25:56;;;;;;;12.77;10.48;;;;;;;16.84;42.19;93103.41;4945009;28;20046;-92
2023/12/09 04:28:25;;;;;;;15.60;11.85;;;;;;;16.82;42.24;93111.38;4969250;28;20053;-93
2023/12/09 04:30:51;;;;;;;9.75;7.90;;;;;;;16.86;41.95;93109.09;4952743;28;20050;-92
2023/12/09 04:33:16;;;;;;;15.63;10.77;;;;;;;16.85;41.72;93106.88;4953112;28;20089;-94
2023/12/09 04:35:50;;;;;;;15.88;11.52;;;;;;;16.83;42.01;93109.38;4947575;28;20046;-92
2023/12/09 04:38:16;;;;;;;8.65;6.72;;;;;;;16.83;41.74;93098.47;4940146;28;20052;-92
2023/12/09 04:40:42;;;;;;;9.60;6.35;;;;;;;16.75;41.61;93109.16;4936321;28;20045;-92
2023/12/09 04:43:08;;;;;;;12.93;10.70;;;;;;;16.85;42.11;93102.16;4999850;28;20056;-92
2023/12/09 04:45:34;;;;;;;8.32;6.38;;;;;;;16.82;41.78;93111.38;5007376;28;20042;-92
2023/12/09 04:48:00;;;;;;;14.27;10.05;;;;;;;16.84;41.71;93099.94;5000613;28;20048;-93
2023/12/09 04:50:25;;;;;;;16.35;12.02;;;;;;;16.87;42.07;93104.38;4983309;28;20043;-93
2023/12/09 04:52:51;;;;;;;13.30;10.40;;;;;;;16.86;41.97;93108.38;5006140;28;20048;-92
2023/12/09 04:55:16;;;;;;;13.05;8.93;;;;;;;16.84;41.76;93121.78;4982356;28;21397;-92
2023/12/09 04:57:42;;;;;;;9.35;6.70;;;;;;;16.74;42.01;93126.78;5000225;28;20046;-92
2023/12/09 05:00:10;;;;;;;10.52;8.60;;;;;;;16.85;41.76;93126.00;4989980;28;20028;-92
2023/12/09 05:02:37;;;;;;;16.88;11.77;;;;;;;16.90;41.82;93127.91;4998830;28;20041;-91
2023/12/09 05:05:04;;;;;;;13.63;9.02;;;;;;;16.85;42.08;93124.00;4988533;28;20105;-91
2023/12/09 05:07:31;;;;;;;8.35;6.65;;;;;;;16.82;41.36;93114.09;4991377;28;20862;-93
2023/12/09 05:09:56;;;;;;;10.93;8.73;;;;;;;16.85;41.89;93115.81;4975622;28;20033;-92
2023/12/09 05:12:26;;;;;;;7.43;6.30;;;;;;;16.75;41.81;93114.63;4960135;28;20047;-92
2023/12/09 05:14:52;;;;;;;7.90;6.25;;;;;;;16.77;41.82;93117.59;4966753;28;20071;-92
2023/12/09 05:17:17;;;;;;;8.95;6.72;;;;;;;16.77;41.88;93114.88;4982173;28;20029;-92
2023/12/09 05:19:44;;;;;;;8.98;6.68;;;;;;;16.74;41.72;93113.16;4961926;28;20634;-91
2023/12/09 05:22:09;;;;;;;7.15;5.60;;;;;;;16.72;41.88;93108.19;4956336;28;20024;-92
2023/12/09 05:24:35;;;;;;;9.30;6.82;;;;;;;16.74;42.09;93115.88;4960392;28;20098;-92
2023/12/09 05:27:00;;;;;;;7.13;6.13;;;;;;;16.71;42.12;93109.44;4954509;28;20452;-92
2023/12/09 05:29:26;;;;;;;7.63;6.25;;;;;;;16.73;41.61;93109.69;4953384;28;20549;-93
2023/12/09 05:31:51;;;;;;;8.05;6.65;;;;;;;16.74;41.95;93118.59;4979013;28;20163;-92
2023/12/09 05:34:17;;;;;;;10.88;7.35;;;;;;;16.84;41.91;93116.31;4962803;28;20036;-93
2023/12/09 05:36:42;;;;;;;7.60;6.40;;;;;;;16.82;41.44;93118.81;4965812;28;21657;-92
2023/12/09 05:39:08;;;;;;;8.10;6.38;;;;;;;16.76;42.01;93122.31;4977752;28;20068;-92
2023/12/09 05:41:33;;;;;;;8.88;6.03;;;;;;;16.76;41.87;93133.22;4989872;28;20048;-94
2023/12/09 05:43:59;;;;;;;6.22;5.60;;;;;;;16.74;41.64;93124.06;4969497;28;20116;-92
2023/12/09 05:46:24;;;;;;;6.72;5.30;;;;;;;16.72;41.62;93130.03;5005123;28;20032;-92
2023/12/09 05:48:50;;;;;;;7.93;6.88;;;;;;;16.78;41.89;93125.28;5022534;28;20037;-92
2023/12/09 05:51:15;;;;;;;7.70;6.32;;;;;;;16.77;42.16;93125.78;5017267;28;20033;-91
2023/12/09 05:53:41;;;;;;;15.70;11.20;;;;;;;16.86;42.22;93125.47;4996878;28;20095;-93
2023/12/09 05:56:11;;;;;;;7.75;6.07;;;;;;;16.77;41.90;93128.53;5010122;28;20033;-92
2023/12/09 05:58:37;;;;;;;7.25;5.55;;;;;;;16.71;42.00;93123.09;4936413;28;20128;-93
2023/12/09 06:01:03;;;;;;;7.75;6.50;;;;;;;16.70;41.71;93129.06;4960966;28;20374;-93
2023/12/09 06:03:28;;;;;;;7.25;5.72;;;;;;;16.72;41.72;93130.03;4938279;28;20054;-93
2023/12/09 06:05:54;;;;;;;15.32;10.43;;;;;;;16.81;42.24;93125.53;4932139;28;20034;-92
2023/12/09 06:08:19;;;;;;;9.20;6.95;;;;;;;16.84;41.53;93129.97;4927139;28;20089;-93
2023/12/09 06:10:45;;;;;;;14.60;11.40;;;;;;;16.88;42.15;93128.44;4911261;28;20800;-90
2023/12/09 06:13:13;;;;;;;8.55;6.15;;;;;;;16.77;41.86;93121.06;4892819;28;20109;-93
2023/12/09 06:15:39;;;;;;;13.75;9.30;;;;;;;16.83;42.17;93123.03;4893547;28;20046;-93
2023/12/09 06:18:04;;;;;;;7.72;6.07;;;;;;;16.78;41.82;93117.09;4910801;28;20496;-91
2023/12/09 06:20:29;;;;;;;7.43;6.03;;;;;;;16.81;41.62;93122.78;4895994;28;20062;-93
2023/12/09 06:22:55;;;;;;;13.40;11.00;;;;;;;16.84;42.06;93125.25;4892359;28;20542;-93
2023/12/09 06:25:20;;;;;;;8.63;5.93;;;;;;;16.75;42.12;93118.09;4910251;28;20046;-92
2023/12/09 06:27:46;;;;;;;13.35;10.85;;;;;;;16.85;42.11;93123.25;4890425;28;20695;-92
2023/12/09 06:30:12;;;;;;;13.00;9.55;;;;;;;16.82;42.26;93127.00;4907007;28;20060;-92
2023/12/09 06:32:37;;;;;;;12.80;9.88;;;;;;;16.87;41.90;93126.22;4920189;28;20382;-92
2023/12/09 06:35:03;;;;;;;14.50;12.27;;;;;;;16.87;42.18;93120.78;4913305;28;20190;-92
2023/12/09 06:37:28;;;;;;;13.13;10.20;;;;;;;16.82;42.26;93113.34;4912634;28;20033;-92
2023/12/09 06:39:54;;;;;;;14.98;12.52;;;;;;;16.74;42.44;93111.16;4943924;28;20421;-95
2023/12/09 06:42:22;;;;;;;12.13;9.43;;;;;;;16.78;42.33;93116.34;4922274;28;20046;-93
2023/12/09 06:44:48;;;;;;;15.82;11.82;;;;;;;16.82;42.49;93113.34;4933942;28;21298;-93
2023/12/09 06:47:13;;;;;;;7.88;6.35;;;;;;;16.74;41.79;93116.63;4915779;28;20092;-92
2023/12/09 06:49:39;;;;;;;8.77;6.50;;;;;;;16.77;42.03;93115.59;4918143;28;20499;-91
2023/12/09 06:52:04;;;;;;;10.90;9.27;;;;;;;16.84;42.17;93111.59;4896897;28;20767;-92
2023/12/09 06:54:30;;;;;;;10.55;7.85;;;;;;;16.84;41.86;93099.94;4895682;28;20656;-93
2023/12/09 06:56:56;;;;;;;11.88;8.75;;;;;;;16.83;42.00;93103.91;4905517;28;20929;-94
2023/12/09 06:59:22;;;;;;;7.90;6.30;;;;;;;16.81;42.15;93125.53;4935387;28;20043;-93
2023/12/09 07:01:49;;;;;;;10.10;7.18;;;;;;;16.87;41.96;93126.22;4906547;28;20077;-92
2023/12/09 07:04:15;;;;;;;10.35;8.43;;;;;;;16.87;42.15;93120.78;4922305;28;20073;-92
2023/12/09 07:06:40;;;;;;;15.07;11.38;;;;;;;16.91;42.36;93121.22;4917647;28;20085;-92
2023/12/09 07:09:06;;;;;;;13.02;10.40;;;;;;;16.77;42.18;93132.00;4926889;28;21542;-92
2023/12/09 07:11:32;;;;;;;11.20;8.73;;;;;;;16.82;42.25;93133.19;4898848;28;20050;-92
2023/12/09 07:13:58;;;;;;;10.27;7.53;;;;;;;16.82;41.76;93127.00;4904810;28;20042;-92
2023/12/09 07:16:24;;;;;;;10.00;7.50;;;;;;;16.82;42.33;93132.47;4893550;28;20034;-92
2023/12/09 07:18:51;;;;;;;14.50;10.10;;;;;;;16.85;42.11;93123.25;4929822;28;20137;-92
2023/12/09 07:21:16;;;;;;;12.93;9.55;;;;;;;16.83;42.56;93120.28;4909466;28;20452;-91
2023/12/09 07:23:42;;;;;;;8.95;6.15;;;;;;;16.75;42.10;93128.28;4919328;28;20065;-92
2023/12/09 07:26:08;;;;;;;13.68;7.90;;;;;;;16.83;41.53;93128.47;4928057;28;20040;-93
2023/12/09 07:28:33;;;;;;;11.32;8.15;;;;;;;16.85;42.15;93132.19;4928100;28;20041;-92
2023/12/09 07:30:59;;;;;;;10.52;8.25;;;;;;;16.86;42.21;93132.94;4965932;28;20048;-94
2023/12/09 07:33:24;;;;;;;8.23;6.65;;;;;;;16.78;41.72;93135.47;5001416;28;20060;-91
2023/12/09 07:35:50;;;;;;;8.93;7.80;;;;;;;16.81;41.93;93137.19;4991651;28;20024;-93
2023/12/09 07:38:15;;;;;;;8.23;7.25;;;;;;;16.69;41.61;93136.50;4995067;28;20029;-92
2023/12/09 07:40:41;;;;;;;11.90;7.78;;;;;;;16.81;42.12;93144.63;5001962;28;20557;-93
2023/12/09 07:43:07;;;;;;;14.45;9.43;;;;;;;16.85;42.15;93137.66;4990987;28;20585;-92
2023/12/09 07:45:33;;;;;;;19.50;10.93;;;;;;;16.84;41.77;93143.63;4979446;28;20837;-92
2023/12/09 07:47:58;;;;;;;16.42;12.38;;;;;;;16.89;42.26;93138.09;4954081;28;20037;-92
2023/12/09 07:50:24;;;;;;;21.85;12.93;;;;;;;16.88;42.24;93147.56;4956324;28;20236;-92
2023/12/09 07:52:49;;;;;;;20.85;13.85;;;;;;;16.89;42.24;93145.56;4956949;28;21118;-94
2023/12/09 07:55:16;;;;;;;20.60;8.85;;;;;;;16.82;41.90;93143.38;4979280;28;20045;-93
2023/12/09 07:57:43;;;;;;;20.25;13.25;;;;;;;16.85;42.02;93147.84;4984847;28;20037;-90
2023/12/09 08:00:13;;;;;;;18.92;10.07;;;;;;;16.84;42.17;93144.34;5010637;28;20909;-91
2023/12/09 08:02:38;;;;;;;15.30;9.27;;;;;;;16.85;41.82;93145.84;5049990;22;20207;-91
2023/12/09 08:05:06;;;;;;;24.88;11.32;;;;;;;16.85;42.12;93143.13;5042560;28;20037;-91
2023/12/09 08:07:31;;;;;;;20.63;10.68;;;;;;;16.90;42.16;93139.59;5016939;28;20075;-92
2023/12/09 08:09:57;;;;;;;19.30;12.05;;;;;;;16.87;42.02;93148.06;4978368;28;20719;-92
2023/12/09 08:12:22;;;;;;;20.45;11.57;;;;;;;16.82;41.84;93146.13;4957566;28;20843;-92
2023/12/09 08:14:47;;;;;;;20.30;9.73;;;;;;;16.78;41.80;93146.38;4964249;28;20117;-93
2023/12/09 08:17:13;;;;;;;19.23;9.95;;;;;;;16.79;41.75;93139.69;4958862;28;20040;-91
2023/12/09 08:19:38;;;;;;;17.40;10.25;;;;;;;16.79;42.04;93137.69;4984259;28;20041;-90
2023/12/09 08:22:04;;;;;;;20.33;10.02;;;;;;;16.76;41.81;93149.63;4960597;28;20094;-91
2023/12/09 08:24:29;;;;;;;21.10;11.27;;;;;;;16.82;42.05;93148.84;4972216;28;20225;-92
2023/12/09 08:26:55;;;;;;;21.58;13.63;;;;;;;16.85;41.99;93143.13;4968416;28;20040;-91
2023/12/09 08:29:21;;;;;;;22.20;10.00;;;;;;;16.74;41.87;93143.16;4990304;28;20397;-92
2023/12/09 08:31:49;;;;;;;20.92;10.38;;;;;;;16.75;41.93;93145.41;4983821;28;20057;-91
2023/12/09 08:34:16;;;;;;;16.83;10.82;;;;;;;16.83;41.89;93159.25;4988781;28;20126;-91
2023/12/09 08:36:41;;;;;;;24.08;10.25;;;;;;;16.83;42.03;93156.53;5025402;28;20047;-91
2023/12/09 08:39:08;;;;;;;21.40;10.85;;;;;;;16.85;41.91;93153.28;5017779;28;20039;-91
2023/12/09 08:41:33;;;;;;;22.15;11.52;;;;;;;16.84;42.05;93157.28;4996604;28;20061;-91
2023/12/09 08:43:59;;;;;;;20.63;10.85;;;;;;;16.81;41.74;93153.56;5008305;28;20039;-91
2023/12/09 08:46:24;;;;;;;19.45;9.48;;;;;;;16.85;41.97;93161.47;5025017;28;20408;-92
2023/12/09 08:48:50;;;;;;;20.27;10.18;;;;;;;16.81;41.80;93155.53;5020344;28;20464;-91
2023/12/09 08:51:15;;;;;;;22.52;10.57;;;;;;;16.89;41.76;93157.22;5001381;28;20531;-92
2023/12/09 08:53:41;;;;;;;21.48;10.27;;;;;;;16.91;41.68;93156.69;4989688;28;20529;-91
2023/12/09 08:56:07;;;;;;;21.70;10.38;;;;;;;16.91;41.76;93143.06;4982220;28;20687;-92
2023/12/09 08:58:33;;;;;;;20.45;9.73;;;;;;;16.87;41.82;93148.06;4988593;28;20421;-93
2023/12/09 09:00:58;;;;;;;43.25;12.25;;;;;;;16.93;42.18;93154.22;5024510;28;20049;-92
2023/12/09 09:03:24;;;;;;;23.95;11.88;;;;;;;16.97;41.85;93149.22;5028977;28;20049;-92
2023/12/09 09:05:49;;;;;;;32.03;11.65;;;;;;;16.89;42.06;93164.69;5030463;28;20037;-92
2023/12/09 09:08:15;;;;;;;29.15;13.77;;;;;;;16.85;41.97;93153.28;5015441;28;20024;-90
2023/12/09 09:10:40;;;;;;;19.10;10.43;;;;;;;16.90;41.88;93157.94;4980023;28;20118;-90
2023/12/09 09:13:06;;;;;;;26.17;11.73;;;;;;;16.77;42.01;93156.56;4995160;28;20039;-90
2023/12/09 09:15:32;;;;;;;28.00;11.52;;;;;;;16.79;41.80;93154.06;4979642;28;21205;-91
2023/12/09 09:17:58;;;;;;;26.55;10.13;;;;;;;16.85;41.71;93159.50;4996957;28;20378;-91
2023/12/09 09:20:24;;;;;;;26.27;11.20;;;;;;;16.87;41.82;93159.72;5002127;28;20039;-90
2023/12/09 09:22:49;;;;;;;23.63;13.57;;;;;;;16.83;41.89;93153.78;5026655;28;20901;-91
2023/12/09 09:25:17;;;;;;;24.75;12.70;;;;;;;16.93;41.98;93151.47;5046910;28;20024;-90
2023/12/09 09:27:43;;;;;;;22.27;12.05;;;;;;;16.85;42.09;93143.13;5034201;28;20027;-90
2023/12/09 09:30:08;;;;;;;27.00;12.00;;;;;;;16.89;41.82;93151.75;5018643;28;20040;-91
2023/12/09 09:32:34;;;;;;;23.95;10.52;;;;;;;16.87;41.95;93153.53;5019228;28;20115;-91
2023/12/09 09:35:00;;;;;;;26.73;12.32;;;;;;;16.75;41.97;93153.59;5031178;28;20039;-91
2023/12/09 09:37:26;;;;;;;23.50;11.45;;;;;;;16.83;41.86;93137.41;5037001;28;20615;-91
2023/12/09 09:39:53;;;;;;;21.70;10.82;;;;;;;16.84;42.08;93144.34;5017422;28;20044;-90
2023/12/09 09:42:36;;;;;;;54.63;13.13;;;;;;;16.91;42.12;93135.59;5037539;28;20826;-92
2023/12/09 09:45:20;;;;;;;46.05;15.85;;;;;;;16.80;42.04;93138.44;5016379;28;20118;-92
2023/12/09 09:47:47;;;;;;;26.70;11.32;;;;;;;16.74;42.01;93141.19;5034977;28;20048;-91
2023/12/09 09:50:13;;;;;;;26.27;11.50;;;;;;;16.82;41.78;93135.19;5032540;28;20095;-93
2023/12/09 09:52:40;;;;;;;21.55;10.10;;;;;;;16.86;41.83;93133.69;5010435;28;20040;-92
2023/12/09 09:55:07;;;;;;;28.33;11.00;;;;;;;16.87;42.00;93123.50;5024643;28;20512;-92
2023/12/09 09:57:36;;;;;;;26.67;12.10;;;;;;;16.90;42.08;93114.28;5016988;28;20093;-92
2023/12/09 10:00:01;;;;;;;28.13;11.30;;;;;;;16.88;42.04;93119.53;5019678;28;20036;-92
2023/12/09 10:02:27;;;;;;;33.80;12.65;;;;;;;16.86;42.03;93116.56;5031894;28;20447;-92
2023/12/09 10:04:53;;;;;;;20.48;9.60;;;;;;;16.76;41.96;93107.94;5026138;28;20032;-92
2023/12/09 10:07:18;;;;;;;19.15;10.57;;;;;;;16.86;41.89;93102.91;5055771;28;20043;-93
2023/12/09 10:09:44;;;;;;;23.08;10.80;;;;;;;16.88;42.00;93097.69;5028721;28;20188;-92
2023/12/09 10:12:10;;;;;;;23.05;10.20;;;;;;;16.89;42.20;93088.25;5016213;28;20023;-92
2023/12/09 10:14:35;;;;;;;21.23;10.23;;;;;;;16.95;41.72;93084.19;5002622;28;20048;-92
2023/12/09 10:17:00;;;;;;;22.90;10.60;;;;;;;16.89;42.09;93085.50;5000467;28;20082;-92
2023/12/09 10:19:26;;;;;;;19.17;10.20;;;;;;;16.86;42.22;93084.53;5008262;28;20867;-92
2023/12/09 10:21:51;;;;;;;24.55;10.48;;;;;;;16.92;41.78;93082.47;4992078;28;20037;-93
2023/12/09 10:24:17;;;;;;;16.63;8.95;;;;;;;16.89;41.67;93077.31;4959540;28;20044;-92
2023/12/09 10:26:43;;;;;;;20.88;10.18;;;;;;;16.94;41.99;93081.97;4962816;28;20041;-92
2023/12/09 10:29:09;;;;;;;19.02;9.35;;;;;;;16.94;41.81;93077.25;4991310;28;20032;-92
2023/12/09 10:31:35;;;;;;;16.20;9.18;;;;;;;16.95;41.98;93067.81;4976987;28;20622;-91
2023/12/09 10:34:02;;;;;;;14.00;9.13;;;;;;;16.87;41.88;93061.44;4989401;28;20804;-92
2023/12/09 10:36:29;;;;;;;16.75;8.85;;;;;;;16.91;42.01;93061.16;4984198;28;20044;-93
2023/12/09 10:38:56;;;;;;;18.35;8.75;;;;;;;16.92;41.62;93057.91;4976241;28;20032;-93
2023/12/09 10:41:22;;;;;;;22.75;9.77;;;;;;;16.92;41.80;93059.91;4993201;28;20056;-92
2023/12/09 10:43:48;;;;;;;24.45;13.65;;;;;;;16.92;41.91;93059.91;4962291;28;20925;-89
2023/12/09 10:46:14;;;;;;;21.17;12.00;;;;;;;16.91;41.94;93063.88;4987403;28;20048;-91
2023/12/09 10:48:41;;;;;;;21.80;11.25;;;;;;;16.91;41.98;93072.06;4982993;28;21236;-93
2023/12/09 10:51:07;;;;;;;35.90;20.13;;;;;;;16.84;41.78;93057.00;4999023;28;20920;-89
2023/12/09 10:53:32;;;;;;;21.58;11.80;;;;;;;16.87;42.07;93061.44;4997527;28;20070;-92
2023/12/09 10:55:58;;;;;;;22.40;11.38;;;;;;;16.91;41.89;93053.69;4987874;28;20084;-91
2023/12/09 10:58:24;;;;;;;26.42;12.13;;;;;;;16.91;42.18;93050.97;4980712;28;20037;-92
2023/12/09 11:00:57;;;;;;;21.63;10.32;;;;;;;16.92;41.80;93060.63;4985490;28;20048;-92
2023/12/09 11:03:24;;;;;;;24.50;11.75;;;;;;;16.93;41.97;93045.75;4995607;28;20047;-91
2023/12/09 11:05:51;;;;;;;28.23;12.95;;;;;;;16.95;42.32;93045.97;4997811;28;21098;-93
2023/12/09 11:08:16;;;;;;;21.13;12.05;;;;;;;16.99;41.96;93042.97;4995017;28;20041;-91
2023/12/09 11:10:42;;;;;;;25.13;14.65;;;;;;;16.93;42.10;93034.81;4953443;28;20418;-92
2023/12/09 11:13:08;;;;;;;30.67;16.33;;;;;;;16.93;42.05;93028.63;4955472;28;20116;-91
2023/12/09 11:15:33;;;;;;;81.97;53.28;;;;;;;16.99;42.10;93032.03;4964705;28;20084;-92
2023/12/09 11:18:07;;;;;;;37.90;21.10;;;;;;;17.00;41.90;93031.53;4959711;28;20042;-92